sensor_id;sensor_type;location;lat;lon;timestamp;pressure;altitude;pressure_sealevel;temperature;humidity
66090;BME280;53113;45.602;11.904;2023-03-14T00:00:12;100841.69;;;13.49;54.82
66090;BME280;53113;45.602;11.904;2023-03-14T00:02:39;100841.38;;;13.49;54.85
66090;BME280;53113;45.602;11.904;2023-03-14T00:05:05;100839.59;;;13.49;54.96
66090;BME280;53113;45.602;11.904;2023-03-14T00:07:32;100836.11;;;13.48;54.94
66090;BME280;53113;45.602;11.904;2023-03-14T00:10:00;100825.90;;;13.47;54.88
66090;BME280;53113;45.602;11.904;2023-03-14T00:12:26;100818.58;;;13.45;54.95
66090;BME280;53113;45.602;11.904;2023-03-14T00:14:52;100823.14;;;13.44;55.02
66090;BME280;53113;45.602;11.904;2023-03-14T00:17:17;100815.20;;;13.41;55.12
66090;BME280;53113;45.602;11.904;2023-03-14T00:19:42;100810.21;;;13.40;55.16
66090;BME280;53113;45.602;11.904;2023-03-14T00:22:08;100800.98;;;13.37;55.31
66090;BME280;53113;45.602;11.904;2023-03-14T00:24:33;100788.00;;;13.35;55.42
66090;BME280;53113;45.602;11.904;2023-03-14T00:26:59;100785.72;;;13.32;55.55
66090;BME280;53113;45.602;11.904;2023-03-14T00:29:24;100792.64;;;13.31;55.61
66090;BME280;53113;45.602;11.904;2023-03-14T00:31:50;100808.31;;;13.28;55.60
66090;BME280;53113;45.602;11.904;2023-03-14T00:34:15;100819.23;;;13.27;55.72
66090;BME280;53113;45.602;11.904;2023-03-14T00:36:41;100823.80;;;13.26;55.62
66090;BME280;53113;45.602;11.904;2023-03-14T00:39:06;100814.06;;;13.25;55.63
66090;BME280;53113;45.602;11.904;2023-03-14T00:41:32;100803.99;;;13.24;55.74
66090;BME280;53113;45.602;11.904;2023-03-14T00:43:57;100806.97;;;13.23;55.83
66090;BME280;53113;45.602;11.904;2023-03-14T00:46:23;100796.44;;;13.21;55.82
66090;BME280;53113;45.602;11.904;2023-03-14T00:48:48;100794.70;;;13.21;55.85
66090;BME280;53113;45.602;11.904;2023-03-14T00:51:14;100801.73;;;13.20;55.94
66090;BME280;53113;45.602;11.904;2023-03-14T00:53:40;100791.82;;;13.19;55.95
66090;BME280;53113;45.602;11.904;2023-03-14T00:56:07;100782.80;;;13.18;56.08
66090;BME280;53113;45.602;11.904;2023-03-14T00:58:33;100772.95;;;13.17;56.13
66090;BME280;53113;45.602;11.904;2023-03-14T01:00:59;100766.31;;;13.16;56.24
66090;BME280;53113;45.602;11.904;2023-03-14T01:03:24;100757.54;;;13.14;56.38
66090;BME280;53113;45.602;11.904;2023-03-14T01:05:50;100752.27;;;13.14;56.49
66090;BME280;53113;45.602;11.904;2023-03-14T01:08:15;100745.98;;;13.12;56.53
66090;BME280;53113;45.602;11.904;2023-03-14T01:10:41;100746.03;;;13.12;56.59
66090;BME280;53113;45.602;11.904;2023-03-14T01:13:07;100745.24;;;13.11;56.64
66090;BME280;53113;45.602;11.904;2023-03-14T01:15:33;100740.36;;;13.10;56.79
66090;BME280;53113;45.602;11.904;2023-03-14T01:17:58;100734.61;;;13.08;56.78
66090;BME280;53113;45.602;11.904;2023-03-14T01:20:31;100728.63;;;13.07;56.83
66090;BME280;53113;45.602;11.904;2023-03-14T01:23:00;100715.56;;;13.07;56.80
66090;BME280;53113;45.602;11.904;2023-03-14T01:25:28;100696.12;;;13.05;56.97
66090;BME280;53113;45.602;11.904;2023-03-14T01:27:55;100682.73;;;13.04;57.14
66090;BME280;53113;45.602;11.904;2023-03-14T01:30:34;100684.05;;;13.01;57.33
66090;BME280;53113;45.602;11.904;2023-03-14T01:33:02;100674.44;;;12.99;57.40
66090;BME280;53113;45.602;11.904;2023-03-14T01:35:31;100669.18;;;12.98;57.47
66090;BME280;53113;45.602;11.904;2023-03-14T01:37:56;100666.65;;;12.97;57.54
66090;BME280;53113;45.602;11.904;2023-03-14T01:40:22;100651.63;;;12.96;57.67
66090;BME280;53113;45.602;11.904;2023-03-14T01:42:54;100644.89;;;12.94;57.85
66090;BME280;53113;45.602;11.904;2023-03-14T01:48:06;100639.16;;;12.90;58.15
66090;BME280;53113;45.602;11.904;2023-03-14T01:50:31;100624.64;;;12.89;58.33
66090;BME280;53113;45.602;11.904;2023-03-14T01:53:00;100615.20;;;12.88;58.56
66090;BME280;53113;45.602;11.904;2023-03-14T01:55:25;100620.98;;;12.87;58.66
66090;BME280;53113;45.602;11.904;2023-03-14T01:57:52;100622.50;;;12.86;58.78
66090;BME280;53113;45.602;11.904;2023-03-14T02:00:19;100620.98;;;12.85;58.96
66090;BME280;53113;45.602;11.904;2023-03-14T02:05:23;100626.98;;;12.85;59.27
66090;BME280;53113;45.602;11.904;2023-03-14T02:10:16;100644.45;;;12.80;59.41
66090;BME280;53113;45.602;11.904;2023-03-14T02:12:44;100644.20;;;12.77;59.60
66090;BME280;53113;45.602;11.904;2023-03-14T02:15:10;100632.39;;;12.74;59.65
66090;BME280;53113;45.602;11.904;2023-03-14T02:17:36;100624.75;;;12.70;59.84
66090;BME280;53113;45.602;11.904;2023-03-14T02:20:14;100616.90;;;12.66;59.99
66090;BME280;53113;45.602;11.904;2023-03-14T02:22:42;100614.70;;;12.63;60.08
66090;BME280;53113;45.602;11.904;2023-03-14T02:27:48;100620.50;;;12.55;60.41
66090;BME280;53113;45.602;11.904;2023-03-14T02:30:15;100611.80;;;12.51;60.65
66090;BME280;53113;45.602;11.904;2023-03-14T02:32:42;100598.36;;;12.48;60.72
66090;BME280;53113;45.602;11.904;2023-03-14T02:35:09;100601.07;;;12.46;60.95
66090;BME280;53113;45.602;11.904;2023-03-14T02:37:38;100602.09;;;12.42;61.00
66090;BME280;53113;45.602;11.904;2023-03-14T02:40:06;100596.84;;;12.39;61.16
66090;BME280;53113;45.602;11.904;2023-03-14T02:42:32;100592.80;;;12.37;61.33
66090;BME280;53113;45.602;11.904;2023-03-14T02:47:39;100576.41;;;12.33;61.61
66090;BME280;53113;45.602;11.904;2023-03-14T02:50:14;100571.27;;;12.30;61.79
66090;BME280;53113;45.602;11.904;2023-03-14T02:52:41;100569.88;;;12.28;61.88
66090;BME280;53113;45.602;11.904;2023-03-14T02:55:07;100556.39;;;12.26;62.10
66090;BME280;53113;45.602;11.904;2023-03-14T02:57:33;100554.95;;;12.24;62.24
66090;BME280;53113;45.602;11.904;2023-03-14T02:59:58;100556.67;;;12.23;62.33
66090;BME280;53113;45.602;11.904;2023-03-14T03:02:25;100563.86;;;12.22;62.49
66090;BME280;53113;45.602;11.904;2023-03-14T03:04:51;100575.53;;;12.20;62.54
66090;BME280;53113;45.602;11.904;2023-03-14T03:07:16;100585.42;;;12.21;62.52
66090;BME280;53113;45.602;11.904;2023-03-14T03:09:42;100571.86;;;12.20;62.51
66090;BME280;53113;45.602;11.904;2023-03-14T03:12:08;100551.42;;;12.20;62.59
66090;BME280;53113;45.602;11.904;2023-03-14T03:14:33;100544.51;;;12.20;62.71
66090;BME280;53113;45.602;11.904;2023-03-14T03:16:59;100546.21;;;12.19;62.70
66090;BME280;53113;45.602;11.904;2023-03-14T03:19:24;100538.20;;;12.19;62.76
66090;BME280;53113;45.602;11.904;2023-03-14T03:21:50;100541.09;;;12.18;62.87
66090;BME280;53113;45.602;11.904;2023-03-14T03:24:16;100541.94;;;12.19;62.98
66090;BME280;53113;45.602;11.904;2023-03-14T03:26:41;100533.30;;;12.18;63.06
66090;BME280;53113;45.602;11.904;2023-03-14T03:29:07;100529.24;;;12.18;63.10
66090;BME280;53113;45.602;11.904;2023-03-14T03:31:32;100525.55;;;12.17;63.25
66090;BME280;53113;45.602;11.904;2023-03-14T03:33:58;100530.85;;;12.16;63.28
66090;BME280;53113;45.602;11.904;2023-03-14T03:36:24;100528.67;;;12.17;63.33
66090;BME280;53113;45.602;11.904;2023-03-14T03:41:20;100530.71;;;12.15;63.40
66090;BME280;53113;45.602;11.904;2023-03-14T03:43:45;100539.71;;;12.14;63.45
66090;BME280;53113;45.602;11.904;2023-03-14T03:46:11;100534.50;;;12.14;63.39
66090;BME280;53113;45.602;11.904;2023-03-14T03:48:37;100521.75;;;12.14;63.42
66090;BME280;53113;45.602;11.904;2023-03-14T03:51:03;100509.12;;;12.15;63.47
66090;BME280;53113;45.602;11.904;2023-03-14T03:53:28;100503.92;;;12.13;63.45
66090;BME280;53113;45.602;11.904;2023-03-14T03:55:54;100508.48;;;12.11;63.43
66090;BME280;53113;45.602;11.904;2023-03-14T03:58:19;100507.21;;;12.09;63.30
66090;BME280;53113;45.602;11.904;2023-03-14T04:00:45;100498.33;;;12.08;63.28
66090;BME280;53113;45.602;11.904;2023-03-14T04:03:11;100476.08;;;12.07;63.22
66090;BME280;53113;45.602;11.904;2023-03-14T04:05:37;100456.86;;;12.05;63.18
66090;BME280;53113;45.602;11.904;2023-03-14T04:08:03;100449.58;;;12.03;63.11
66090;BME280;53113;45.602;11.904;2023-03-14T04:10:29;100443.83;;;12.02;63.26
66090;BME280;53113;45.602;11.904;2023-03-14T04:12:55;100439.88;;;12.01;63.13
66090;BME280;53113;45.602;11.904;2023-03-14T04:15:20;100445.29;;;12.00;63.06
66090;BME280;53113;45.602;11.904;2023-03-14T04:17:46;100438.27;;;11.99;63.14
66090;BME280;53113;45.602;11.904;2023-03-14T04:20:12;100444.98;;;11.97;63.18
66090;BME280;53113;45.602;11.904;2023-03-14T04:22:38;100431.08;;;11.96;63.08
66090;BME280;53113;45.602;11.904;2023-03-14T04:25:04;100418.99;;;11.94;63.11
66090;BME280;53113;45.602;11.904;2023-03-14T04:27:30;100412.33;;;11.93;63.15
66090;BME280;53113;45.602;11.904;2023-03-14T04:29:56;100400.04;;;11.91;63.24
66090;BME280;53113;45.602;11.904;2023-03-14T04:32:22;100389.73;;;11.89;63.16
66090;BME280;53113;45.602;11.904;2023-03-14T04:34:48;100390.65;;;11.87;63.27
66090;BME280;53113;45.602;11.904;2023-03-14T04:37:13;100397.58;;;11.87;63.29
66090;BME280;53113;45.602;11.904;2023-03-14T04:39:39;100402.05;;;11.88;63.24
66090;BME280;53113;45.602;11.904;2023-03-14T04:42:04;100395.32;;;11.91;63.19
66090;BME280;53113;45.602;11.904;2023-03-14T04:44:31;100396.39;;;11.95;63.28
66090;BME280;53113;45.602;11.904;2023-03-14T04:46:56;100396.41;;;11.99;63.23
66090;BME280;53113;45.602;11.904;2023-03-14T04:49:22;100392.29;;;12.03;63.20
66090;BME280;53113;45.602;11.904;2023-03-14T04:51:48;100383.14;;;12.08;63.20
66090;BME280;53113;45.602;11.904;2023-03-14T04:54:16;100370.08;;;12.12;63.06
66090;BME280;53113;45.602;11.904;2023-03-14T04:56:42;100358.09;;;12.15;62.93
66090;BME280;53113;45.602;11.904;2023-03-14T04:59:08;100344.13;;;12.16;62.99
66090;BME280;53113;45.602;11.904;2023-03-14T05:01:34;100356.98;;;12.17;62.93
66090;BME280;53113;45.602;11.904;2023-03-14T05:04:00;100350.09;;;12.17;62.86
66090;BME280;53113;45.602;11.904;2023-03-14T05:06:25;100340.50;;;12.17;62.84
66090;BME280;53113;45.602;11.904;2023-03-14T05:08:51;100331.27;;;12.15;62.73
66090;BME280;53113;45.602;11.904;2023-03-14T05:11:16;100324.22;;;12.15;62.73
66090;BME280;53113;45.602;11.904;2023-03-14T05:13:42;100314.53;;;12.11;62.66
66090;BME280;53113;45.602;11.904;2023-03-14T05:16:09;100324.46;;;12.12;62.71
66090;BME280;53113;45.602;11.904;2023-03-14T05:18:35;100316.00;;;12.09;62.66
66090;BME280;53113;45.602;11.904;2023-03-14T05:21:01;100311.83;;;12.06;62.65
66090;BME280;53113;45.602;11.904;2023-03-14T05:23:26;100316.30;;;12.03;62.59
66090;BME280;53113;45.602;11.904;2023-03-14T05:25:52;100316.85;;;12.02;62.59
66090;BME280;53113;45.602;11.904;2023-03-14T05:28:22;100299.48;;;11.99;62.63
66090;BME280;53113;45.602;11.904;2023-03-14T05:30:48;100293.52;;;11.96;62.57
66090;BME280;53113;45.602;11.904;2023-03-14T05:35:43;100285.02;;;11.90;62.60
66090;BME280;53113;45.602;11.904;2023-03-14T05:38:09;100270.34;;;11.87;62.60
66090;BME280;53113;45.602;11.904;2023-03-14T05:40:35;100270.90;;;11.85;62.60
66090;BME280;53113;45.602;11.904;2023-03-14T05:43:00;100267.79;;;11.82;62.60
66090;BME280;53113;45.602;11.904;2023-03-14T05:45:26;100272.76;;;11.80;62.70
66090;BME280;53113;45.602;11.904;2023-03-14T05:47:52;100278.16;;;11.77;62.73
66090;BME280;53113;45.602;11.904;2023-03-14T05:50:17;100258.27;;;11.75;62.80
66090;BME280;53113;45.602;11.904;2023-03-14T05:52:43;100239.90;;;11.73;62.80
66090;BME280;53113;45.602;11.904;2023-03-14T05:55:08;100238.67;;;11.70;62.79
66090;BME280;53113;45.602;11.904;2023-03-14T05:57:34;100241.23;;;11.67;62.81
66090;BME280;53113;45.602;11.904;2023-03-14T05:59:59;100232.55;;;11.65;62.91
66090;BME280;53113;45.602;11.904;2023-03-14T06:02:25;100236.67;;;11.63;62.86
66090;BME280;53113;45.602;11.904;2023-03-14T06:04:51;100247.17;;;11.60;62.99
66090;BME280;53113;45.602;11.904;2023-03-14T06:07:17;100256.70;;;11.59;62.99
66090;BME280;53113;45.602;11.904;2023-03-14T06:09:43;100250.25;;;11.58;63.03
66090;BME280;53113;45.602;11.904;2023-03-14T06:12:08;100242.12;;;11.55;63.19
66090;BME280;53113;45.602;11.904;2023-03-14T06:14:34;100241.45;;;11.53;63.34
66090;BME280;53113;45.602;11.904;2023-03-14T06:17:00;100228.38;;;11.50;63.36
66090;BME280;53113;45.602;11.904;2023-03-14T06:19:25;100212.77;;;11.50;63.54
66090;BME280;53113;45.602;11.904;2023-03-14T06:21:51;100215.10;;;11.50;63.75
66090;BME280;53113;45.602;11.904;2023-03-14T06:24:17;100213.27;;;11.48;63.86
66090;BME280;53113;45.602;11.904;2023-03-14T06:26:43;100207.14;;;11.47;63.99
66090;BME280;53113;45.602;11.904;2023-03-14T06:29:09;100198.36;;;11.47;64.17
66090;BME280;53113;45.602;11.904;2023-03-14T06:31:35;100192.34;;;11.46;64.33
66090;BME280;53113;45.602;11.904;2023-03-14T06:34:00;100196.92;;;11.45;64.54
66090;BME280;53113;45.602;11.904;2023-03-14T06:36:26;100214.95;;;11.45;64.71
66090;BME280;53113;45.602;11.904;2023-03-14T06:38:52;100233.13;;;11.49;64.71
66090;BME280;53113;45.602;11.904;2023-03-14T06:41:17;100277.77;;;11.53;64.90
66090;BME280;53113;45.602;11.904;2023-03-14T06:43:43;100294.46;;;11.57;65.12
66090;BME280;53113;45.602;11.904;2023-03-14T06:46:09;100292.11;;;11.59;65.30
66090;BME280;53113;45.602;11.904;2023-03-14T06:48:34;100312.55;;;11.61;65.53
66090;BME280;53113;45.602;11.904;2023-03-14T06:51:00;100305.11;;;11.61;65.99
66090;BME280;53113;45.602;11.904;2023-03-14T06:53:25;100298.75;;;11.60;66.19
66090;BME280;53113;45.602;11.904;2023-03-14T06:55:51;100291.67;;;11.58;66.42
66090;BME280;53113;45.602;11.904;2023-03-14T06:58:16;100291.88;;;11.56;66.62
66090;BME280;53113;45.602;11.904;2023-03-14T07:00:42;100303.75;;;11.52;66.83
66090;BME280;53113;45.602;11.904;2023-03-14T07:03:09;100299.71;;;11.49;67.01
66090;BME280;53113;45.602;11.904;2023-03-14T07:05:35;100313.16;;;11.45;67.18
66090;BME280;53113;45.602;11.904;2023-03-14T07:08:01;100335.64;;;11.42;67.28
66090;BME280;53113;45.602;11.904;2023-03-14T07:10:26;100329.19;;;11.38;67.51
66090;BME280;53113;45.602;11.904;2023-03-14T07:12:52;100319.37;;;11.35;67.72
66090;BME280;53113;45.602;11.904;2023-03-14T07:15:19;100322.52;;;11.31;67.95
66090;BME280;53113;45.602;11.904;2023-03-14T07:17:45;100311.95;;;11.29;68.26
66090;BME280;53113;45.602;11.904;2023-03-14T07:20:13;100303.80;;;11.27;68.76
66090;BME280;53113;45.602;11.904;2023-03-14T07:22:39;100295.30;;;11.24;69.04
66090;BME280;53113;45.602;11.904;2023-03-14T07:25:05;100295.16;;;11.21;69.15
66090;BME280;53113;45.602;11.904;2023-03-14T07:27:31;100285.31;;;11.19;69.42
66090;BME280;53113;45.602;11.904;2023-03-14T07:29:56;100287.16;;;11.20;69.64
66090;BME280;53113;45.602;11.904;2023-03-14T07:32:22;100279.92;;;11.22;69.79
66090;BME280;53113;45.602;11.904;2023-03-14T07:34:48;100274.27;;;11.26;69.86
66090;BME280;53113;45.602;11.904;2023-03-14T07:37:14;100274.60;;;11.30;70.00
66090;BME280;53113;45.602;11.904;2023-03-14T07:39:40;100270.38;;;11.36;70.10
66090;BME280;53113;45.602;11.904;2023-03-14T07:42:06;100248.80;;;11.41;70.21
66090;BME280;53113;45.602;11.904;2023-03-14T07:44:32;100227.14;;;11.46;70.43
66090;BME280;53113;45.602;11.904;2023-03-14T07:46:57;100211.86;;;11.49;70.50
66090;BME280;53113;45.602;11.904;2023-03-14T07:49:23;100196.35;;;11.52;70.65
66090;BME280;53113;45.602;11.904;2023-03-14T07:51:49;100200.14;;;11.53;70.80
66090;BME280;53113;45.602;11.904;2023-03-14T07:56:43;100209.16;;;11.53;70.92
66090;BME280;53113;45.602;11.904;2023-03-14T07:59:09;100205.40;;;11.52;71.17
66090;BME280;53113;45.602;11.904;2023-03-14T08:01:37;100215.23;;;11.53;71.19
66090;BME280;53113;45.602;11.904;2023-03-14T08:04:03;100217.86;;;11.49;71.30
66090;BME280;53113;45.602;11.904;2023-03-14T08:06:28;100223.16;;;11.49;71.34
66090;BME280;53113;45.602;11.904;2023-03-14T08:08:53;100223.15;;;11.50;71.47
66090;BME280;53113;45.602;11.904;2023-03-14T08:11:19;100206.98;;;11.50;71.62
66090;BME280;53113;45.602;11.904;2023-03-14T08:13:44;100207.68;;;11.50;71.89
66090;BME280;53113;45.602;11.904;2023-03-14T08:16:17;100202.14;;;11.50;72.13
66090;BME280;53113;45.602;11.904;2023-03-14T08:18:43;100200.58;;;11.52;72.24
66090;BME280;53113;45.602;11.904;2023-03-14T08:21:09;100201.73;;;11.53;72.46
66090;BME280;53113;45.602;11.904;2023-03-14T08:23:35;100199.95;;;11.53;72.47
66090;BME280;53113;45.602;11.904;2023-03-14T08:26:00;100189.45;;;11.53;72.50
66090;BME280;53113;45.602;11.904;2023-03-14T08:28:26;100183.13;;;11.57;72.68
66090;BME280;53113;45.602;11.904;2023-03-14T08:30:59;100179.17;;;11.63;72.88
66090;BME280;53113;45.602;11.904;2023-03-14T08:33:25;100179.08;;;11.71;72.93
66090;BME280;53113;45.602;11.904;2023-03-14T08:35:51;100167.95;;;11.78;73.04
66090;BME280;53113;45.602;11.904;2023-03-14T08:38:17;100161.83;;;11.85;73.03
66090;BME280;53113;45.602;11.904;2023-03-14T08:40:43;100164.46;;;11.93;73.20
66090;BME280;53113;45.602;11.904;2023-03-14T08:43:08;100171.70;;;12.02;73.29
66090;BME280;53113;45.602;11.904;2023-03-14T08:45:34;100185.35;;;12.09;73.35
